Terminal Aerodrome Forecast
Issued by NWS

Home | Current Version | Previous Version | Text Only | Print | Product List | Glossary On
Versions: 1 2 3 4 5 6 7 8 9 10 11 12 13 14
000
FTUS42 KMHX 230533
TAFOAJ
TAF
KOAJ 230533Z 2306/2406 18005KT P6SM OVC250
     FM230900 18010KT P6SM VCSH OVC050
     FM231200 18015KT 6SM -SHRA OVC020
     FM231500 21015G25KT P6SM BKN010
     FM232000 23015G20KT P6SM SCT020
     FM232300 25010KT P6SM SKC
     FM240400 28005KT P6SM SKC
      AMD LTD TO CLD VIS AND WIND=

USA.gov is the U.S. government's official web portal to all federal, state and local government web resources and services.